GRI Airport (Central Nebraska Rgnl) Information

FAA: GRI - ICAO: KGRI

GRI Airport Location

State Nebraska
County Hall
City Grand Island
GRI Airport is 3 miles northeast of Grand Island, NE.
Latitude 40-58-03.1530N
Longitude 098-18-34.7000W
Elevation 1,847ft

KGRI Airport METARs

METAR KGRI 060653Z AUTO 17012KT 10SM -RA FEW110 23/21 A2991 RMK AO2 LTG DSNT SE AND S RAB0559E20B39 SLP113 P0001 T02280206
Altimeter 29.91"
Temperature 22.8°C (73.0°F)
Wind 170° at 12KT
Clouds few at 11,000ft
Visibility 10.0mi
Time observed: 2022-07-06T06:53:00Z

GRI Airport Details

Status Operational
Activation April 1940
Ownership Public
Usage Public
Chart OMAHA
ATC on-site Yes
Beacon schedule sunset-sunrise
Beacon color clear green

GRI Airport Contacts

Owner HALL COUNTY ARPT AUTH
Owner address 3579 SKY PARK ROAD, GRAND ISLAND, NE 68801
Owner phone 308-385-5170
Manager CHANCE KLASEK, CFO
Manager address 2200 H STREET, FAIRBURY, NE 68352
Manager phone 402-729-3351

GRI Airport (Central Nebraska Rgnl) Radio Frequencies

GRI (Airport) Radio Frequencies

UNICOM 122.95
Common traffic advisory frequency (CTAF) 118.2